sensor_id;sensor_type;location;lat;lon;timestamp;temperature;humidity
324;DHT22;149;51.094;17.002;2024-02-26T00:01:52;3.10;99.90
324;DHT22;149;51.094;17.002;2024-02-26T00:04:20;3.10;99.90
324;DHT22;149;51.094;17.002;2024-02-26T00:06:48;3.00;99.90
324;DHT22;149;51.094;17.002;2024-02-26T00:09:18;3.00;99.90
324;DHT22;149;51.094;17.002;2024-02-26T00:11:45;3.00;99.90
324;DHT22;149;51.094;17.002;2024-02-26T00:14:12;3.30;99.90
324;DHT22;149;51.094;17.002;2024-02-26T00:16:41;3.30;99.90
324;DHT22;149;51.094;17.002;2024-02-26T00:19:08;3.30;99.90
324;DHT22;149;51.094;17.002;2024-02-26T00:21:39;3.70;99.90
324;DHT22;149;51.094;17.002;2024-02-26T00:24:06;3.60;99.90
324;DHT22;149;51.094;17.002;2024-02-26T00:26:36;3.80;99.90
324;DHT22;149;51.094;17.002;2024-02-26T00:29:03;3.80;99.90
324;DHT22;149;51.094;17.002;2024-02-26T00:31:30;3.80;99.90
324;DHT22;149;51.094;17.002;2024-02-26T00:33:57;3.80;99.90
324;DHT22;149;51.094;17.002;2024-02-26T00:36:24;3.80;99.90
324;DHT22;149;51.094;17.002;2024-02-26T00:38:52;3.90;99.90
324;DHT22;149;51.094;17.002;2024-02-26T00:41:22;3.90;99.90
324;DHT22;149;51.094;17.002;2024-02-26T00:43:49;3.90;99.90
324;DHT22;149;51.094;17.002;2024-02-26T00:46:16;3.80;99.90
324;DHT22;149;51.094;17.002;2024-02-26T00:48:43;3.50;99.90
324;DHT22;149;51.094;17.002;2024-02-26T00:51:10;3.50;99.90
324;DHT22;149;51.094;17.002;2024-02-26T00:53:38;3.50;99.90
324;DHT22;149;51.094;17.002;2024-02-26T00:56:05;3.40;99.90
324;DHT22;149;51.094;17.002;2024-02-26T00:58:33;3.60;99.90
324;DHT22;149;51.094;17.002;2024-02-26T01:01:00;3.50;99.90
324;DHT22;149;51.094;17.002;2024-02-26T01:03:27;3.60;99.90
324;DHT22;149;51.094;17.002;2024-02-26T01:05:54;3.70;99.90
324;DHT22;149;51.094;17.002;2024-02-26T01:08:25;3.60;99.90
324;DHT22;149;51.094;17.002;2024-02-26T01:10:52;3.70;99.90
324;DHT22;149;51.094;17.002;2024-02-26T01:13:19;3.80;99.90
324;DHT22;149;51.094;17.002;2024-02-26T01:15:46;3.60;99.90
324;DHT22;149;51.094;17.002;2024-02-26T01:18:13;3.50;99.90
324;DHT22;149;51.094;17.002;2024-02-26T01:20:41;3.30;99.90
324;DHT22;149;51.094;17.002;2024-02-26T01:23:08;3.40;99.90
324;DHT22;149;51.094;17.002;2024-02-26T01:25:36;3.20;99.90
324;DHT22;149;51.094;17.002;2024-02-26T01:28:04;3.20;99.90
324;DHT22;149;51.094;17.002;2024-02-26T01:30:31;3.40;99.90
324;DHT22;149;51.094;17.002;2024-02-26T01:32:58;3.30;99.90
324;DHT22;149;51.094;17.002;2024-02-26T01:35:26;3.30;99.90
324;DHT22;149;51.094;17.002;2024-02-26T01:37:53;2.90;99.90
324;DHT22;149;51.094;17.002;2024-02-26T01:40:20;3.30;99.90
324;DHT22;149;51.094;17.002;2024-02-26T01:42:47;3.20;99.90
324;DHT22;149;51.094;17.002;2024-02-26T01:45:16;3.10;99.90
324;DHT22;149;51.094;17.002;2024-02-26T01:47:51;3.20;99.90
324;DHT22;149;51.094;17.002;2024-02-26T01:50:20;3.40;99.90
324;DHT22;149;51.094;17.002;2024-02-26T01:52:50;3.20;99.90
324;DHT22;149;51.094;17.002;2024-02-26T01:55:18;3.00;99.90
324;DHT22;149;51.094;17.002;2024-02-26T01:57:48;3.20;99.90
324;DHT22;149;51.094;17.002;2024-02-26T02:00:16;3.10;99.90
324;DHT22;149;51.094;17.002;2024-02-26T02:02:44;3.10;99.90
324;DHT22;149;51.094;17.002;2024-02-26T02:05:15;3.00;99.90
324;DHT22;149;51.094;17.002;2024-02-26T02:07:44;3.10;99.90
324;DHT22;149;51.094;17.002;2024-02-26T02:10:12;3.00;99.90
324;DHT22;149;51.094;17.002;2024-02-26T02:12:40;3.00;99.90
324;DHT22;149;51.094;17.002;2024-02-26T02:15:08;3.00;99.90
324;DHT22;149;51.094;17.002;2024-02-26T02:17:35;3.00;99.90
324;DHT22;149;51.094;17.002;2024-02-26T02:20:02;3.00;99.90
324;DHT22;149;51.094;17.002;2024-02-26T02:22:30;3.10;99.90
324;DHT22;149;51.094;17.002;2024-02-26T02:24:59;3.20;99.90
324;DHT22;149;51.094;17.002;2024-02-26T02:27:28;3.10;99.90
324;DHT22;149;51.094;17.002;2024-02-26T02:29:56;3.10;99.90
324;DHT22;149;51.094;17.002;2024-02-26T02:32:24;3.10;99.90
324;DHT22;149;51.094;17.002;2024-02-26T02:34:52;3.10;99.90
324;DHT22;149;51.094;17.002;2024-02-26T02:37:19;3.10;99.90
324;DHT22;149;51.094;17.002;2024-02-26T02:39:46;3.00;99.90
324;DHT22;149;51.094;17.002;2024-02-26T02:42:13;3.00;99.90
324;DHT22;149;51.094;17.002;2024-02-26T02:44:40;3.10;99.90
324;DHT22;149;51.094;17.002;2024-02-26T02:47:07;3.10;99.90
324;DHT22;149;51.094;17.002;2024-02-26T02:49:37;3.10;99.90
324;DHT22;149;51.094;17.002;2024-02-26T02:52:04;3.10;99.90
324;DHT22;149;51.094;17.002;2024-02-26T02:54:32;3.00;99.90
324;DHT22;149;51.094;17.002;2024-02-26T02:56:58;2.90;99.90
324;DHT22;149;51.094;17.002;2024-02-26T02:59:26;2.80;99.90
324;DHT22;149;51.094;17.002;2024-02-26T03:01:52;3.10;99.90
324;DHT22;149;51.094;17.002;2024-02-26T03:04:19;3.10;99.90
324;DHT22;149;51.094;17.002;2024-02-26T03:06:46;2.90;99.90
324;DHT22;149;51.094;17.002;2024-02-26T03:09:14;3.10;99.90
324;DHT22;149;51.094;17.002;2024-02-26T03:11:41;2.70;99.90
324;DHT22;149;51.094;17.002;2024-02-26T03:14:09;2.50;99.90
324;DHT22;149;51.094;17.002;2024-02-26T03:16:36;2.60;99.90
324;DHT22;149;51.094;17.002;2024-02-26T03:19:03;2.50;99.90
324;DHT22;149;51.094;17.002;2024-02-26T03:21:30;2.40;99.90
324;DHT22;149;51.094;17.002;2024-02-26T03:23:57;2.40;99.90
324;DHT22;149;51.094;17.002;2024-02-26T03:26:24;2.80;99.90
324;DHT22;149;51.094;17.002;2024-02-26T03:28:52;2.50;99.90
324;DHT22;149;51.094;17.002;2024-02-26T03:31:19;2.50;99.90
324;DHT22;149;51.094;17.002;2024-02-26T03:33:46;2.50;99.90
324;DHT22;149;51.094;17.002;2024-02-26T03:36:14;2.60;99.90
324;DHT22;149;51.094;17.002;2024-02-26T03:38:42;2.50;99.90
324;DHT22;149;51.094;17.002;2024-02-26T03:41:09;2.50;99.90
324;DHT22;149;51.094;17.002;2024-02-26T03:43:36;2.50;99.90
324;DHT22;149;51.094;17.002;2024-02-26T03:46:03;2.50;99.90
324;DHT22;149;51.094;17.002;2024-02-26T03:48:30;2.50;99.90
324;DHT22;149;51.094;17.002;2024-02-26T03:50:58;2.50;99.90
324;DHT22;149;51.094;17.002;2024-02-26T03:53:25;2.30;99.90
324;DHT22;149;51.094;17.002;2024-02-26T03:55:53;2.20;99.90
324;DHT22;149;51.094;17.002;2024-02-26T03:58:22;2.20;99.90
324;DHT22;149;51.094;17.002;2024-02-26T04:00:49;2.20;99.90
324;DHT22;149;51.094;17.002;2024-02-26T04:03:16;2.40;99.90
324;DHT22;149;51.094;17.002;2024-02-26T04:05:43;2.10;99.90
324;DHT22;149;51.094;17.002;2024-02-26T04:08:10;1.90;99.90
324;DHT22;149;51.094;17.002;2024-02-26T04:10:37;2.00;99.90
324;DHT22;149;51.094;17.002;2024-02-26T04:13:07;2.00;99.90
324;DHT22;149;51.094;17.002;2024-02-26T04:15:35;2.00;99.90
324;DHT22;149;51.094;17.002;2024-02-26T04:18:02;1.90;99.90
324;DHT22;149;51.094;17.002;2024-02-26T04:20:29;2.00;99.90
324;DHT22;149;51.094;17.002;2024-02-26T04:22:56;2.20;99.90
324;DHT22;149;51.094;17.002;2024-02-26T04:25:25;2.10;99.90
324;DHT22;149;51.094;17.002;2024-02-26T04:27:52;2.30;99.90
324;DHT22;149;51.094;17.002;2024-02-26T04:30:19;2.20;99.90
324;DHT22;149;51.094;17.002;2024-02-26T04:32:46;2.10;99.90
324;DHT22;149;51.094;17.002;2024-02-26T04:35:13;2.00;99.90
324;DHT22;149;51.094;17.002;2024-02-26T04:37:41;2.10;99.90
324;DHT22;149;51.094;17.002;2024-02-26T04:40:09;2.10;99.90
324;DHT22;149;51.094;17.002;2024-02-26T04:42:36;2.30;99.90
324;DHT22;149;51.094;17.002;2024-02-26T04:45:04;2.30;99.90
324;DHT22;149;51.094;17.002;2024-02-26T04:47:31;2.30;99.90
324;DHT22;149;51.094;17.002;2024-02-26T04:49:58;2.20;99.90
324;DHT22;149;51.094;17.002;2024-02-26T04:52:25;2.30;99.90
324;DHT22;149;51.094;17.002;2024-02-26T04:54:52;2.20;99.90
324;DHT22;149;51.094;17.002;2024-02-26T04:57:21;2.20;99.90
324;DHT22;149;51.094;17.002;2024-02-26T04:59:49;2.10;99.90
324;DHT22;149;51.094;17.002;2024-02-26T05:02:16;2.10;99.90
324;DHT22;149;51.094;17.002;2024-02-26T05:04:43;2.20;99.90
324;DHT22;149;51.094;17.002;2024-02-26T05:07:10;2.20;99.90
324;DHT22;149;51.094;17.002;2024-02-26T05:09:39;2.20;99.90
324;DHT22;149;51.094;17.002;2024-02-26T05:12:09;2.30;99.90
324;DHT22;149;51.094;17.002;2024-02-26T05:14:36;2.10;99.90
324;DHT22;149;51.094;17.002;2024-02-26T05:17:03;2.40;99.90
324;DHT22;149;51.094;17.002;2024-02-26T05:19:31;2.20;99.90
324;DHT22;149;51.094;17.002;2024-02-26T05:21:58;2.40;99.90
324;DHT22;149;51.094;17.002;2024-02-26T05:24:25;2.40;99.90
324;DHT22;149;51.094;17.002;2024-02-26T05:26:52;2.50;99.90
324;DHT22;149;51.094;17.002;2024-02-26T05:29:20;2.40;99.90
324;DHT22;149;51.094;17.002;2024-02-26T05:31:47;2.40;99.90
324;DHT22;149;51.094;17.002;2024-02-26T05:34:14;2.60;99.90
324;DHT22;149;51.094;17.002;2024-02-26T05:36:41;2.80;99.90
324;DHT22;149;51.094;17.002;2024-02-26T05:39:08;2.60;99.90
324;DHT22;149;51.094;17.002;2024-02-26T05:41:44;2.70;99.90
324;DHT22;149;51.094;17.002;2024-02-26T05:44:12;2.70;99.90
324;DHT22;149;51.094;17.002;2024-02-26T05:46:40;3.00;99.90
324;DHT22;149;51.094;17.002;2024-02-26T05:49:07;3.00;99.90
324;DHT22;149;51.094;17.002;2024-02-26T05:51:34;2.80;99.90
324;DHT22;149;51.094;17.002;2024-02-26T05:54:01;2.90;99.90
324;DHT22;149;51.094;17.002;2024-02-26T05:56:31;3.00;99.90
324;DHT22;149;51.094;17.002;2024-02-26T05:58:59;2.90;99.90
324;DHT22;149;51.094;17.002;2024-02-26T06:01:26;3.00;99.90
324;DHT22;149;51.094;17.002;2024-02-26T06:03:53;3.10;99.90
324;DHT22;149;51.094;17.002;2024-02-26T06:06:20;3.20;99.90
324;DHT22;149;51.094;17.002;2024-02-26T06:08:49;3.20;99.90
324;DHT22;149;51.094;17.002;2024-02-26T06:11:17;3.30;99.90
324;DHT22;149;51.094;17.002;2024-02-26T06:13:44;3.30;99.90
324;DHT22;149;51.094;17.002;2024-02-26T06:16:11;3.30;99.90
324;DHT22;149;51.094;17.002;2024-02-26T06:18:39;3.40;99.90
324;DHT22;149;51.094;17.002;2024-02-26T06:21:09;3.50;99.90
324;DHT22;149;51.094;17.002;2024-02-26T06:23:40;3.50;99.90
324;DHT22;149;51.094;17.002;2024-02-26T06:26:07;4.00;99.90
324;DHT22;149;51.094;17.002;2024-02-26T06:28:34;4.30;99.90
324;DHT22;149;51.094;17.002;2024-02-26T06:31:03;4.50;99.90
324;DHT22;149;51.094;17.002;2024-02-26T06:33:30;4.20;99.90
324;DHT22;149;51.094;17.002;2024-02-26T06:35:57;4.20;99.90
324;DHT22;149;51.094;17.002;2024-02-26T06:38:24;4.00;99.90
324;DHT22;149;51.094;17.002;2024-02-26T06:40:51;4.10;99.90
324;DHT22;149;51.094;17.002;2024-02-26T06:43:20;4.40;99.90
324;DHT22;149;51.094;17.002;2024-02-26T06:45:46;4.30;99.90
324;DHT22;149;51.094;17.002;2024-02-26T06:48:14;4.50;99.90
324;DHT22;149;51.094;17.002;2024-02-26T06:50:41;4.70;99.90
324;DHT22;149;51.094;17.002;2024-02-26T06:53:08;4.50;99.90
324;DHT22;149;51.094;17.002;2024-02-26T06:55:35;4.50;99.90
324;DHT22;149;51.094;17.002;2024-02-26T06:58:04;4.50;99.90
324;DHT22;149;51.094;17.002;2024-02-26T07:00:31;4.70;99.90
324;DHT22;149;51.094;17.002;2024-02-26T07:02:58;5.20;99.90
324;DHT22;149;51.094;17.002;2024-02-26T07:05:25;5.30;99.90
324;DHT22;149;51.094;17.002;2024-02-26T07:07:52;5.70;99.90
324;DHT22;149;51.094;17.002;2024-02-26T07:10:19;6.10;99.90
324;DHT22;149;51.094;17.002;2024-02-26T07:12:47;6.30;99.90
324;DHT22;149;51.094;17.002;2024-02-26T07:15:13;6.50;99.90
324;DHT22;149;51.094;17.002;2024-02-26T07:17:41;6.30;99.90
324;DHT22;149;51.094;17.002;2024-02-26T07:20:09;6.30;99.90
324;DHT22;149;51.094;17.002;2024-02-26T07:22:38;6.70;99.90
324;DHT22;149;51.094;17.002;2024-02-26T07:25:05;6.60;99.90
324;DHT22;149;51.094;17.002;2024-02-26T07:27:34;6.50;99.90
324;DHT22;149;51.094;17.002;2024-02-26T07:30:02;6.50;99.90
324;DHT22;149;51.094;17.002;2024-02-26T07:32:29;6.80;99.90
324;DHT22;149;51.094;17.002;2024-02-26T07:34:56;7.60;99.90
324;DHT22;149;51.094;17.002;2024-02-26T07:37:23;7.90;99.90
324;DHT22;149;51.094;17.002;2024-02-26T07:39:50;8.50;99.90
324;DHT22;149;51.094;17.002;2024-02-26T07:42:17;9.10;99.90
324;DHT22;149;51.094;17.002;2024-02-26T07:44:44;9.90;99.90
324;DHT22;149;51.094;17.002;2024-02-26T07:47:11;10.60;99.90
324;DHT22;149;51.094;17.002;2024-02-26T07:49:39;11.20;99.90
324;DHT22;149;51.094;17.002;2024-02-26T07:52:06;10.70;99.90
324;DHT22;149;51.094;17.002;2024-02-26T07:54:33;11.00;99.90
324;DHT22;149;51.094;17.002;2024-02-26T07:57:01;11.90;99.90
324;DHT22;149;51.094;17.002;2024-02-26T07:59:31;11.90;99.90
324;DHT22;149;51.094;17.002;2024-02-26T08:01:58;12.30;99.90
324;DHT22;149;51.094;17.002;2024-02-26T08:04:26;13.30;99.90
324;DHT22;149;51.094;17.002;2024-02-26T08:06:53;13.60;99.90
324;DHT22;149;51.094;17.002;2024-02-26T08:09:21;14.10;99.90
324;DHT22;149;51.094;17.002;2024-02-26T08:11:48;13.40;99.90
324;DHT22;149;51.094;17.002;2024-02-26T08:14:15;14.00;99.90
324;DHT22;149;51.094;17.002;2024-02-26T08:16:42;14.40;99.90
324;DHT22;149;51.094;17.002;2024-02-26T08:19:09;14.80;99.90
324;DHT22;149;51.094;17.002;2024-02-26T08:21:38;15.30;99.90
324;DHT22;149;51.094;17.002;2024-02-26T08:24:05;15.10;99.90
324;DHT22;149;51.094;17.002;2024-02-26T08:26:32;14.60;99.90
324;DHT22;149;51.094;17.002;2024-02-26T08:28:59;14.40;99.90
324;DHT22;149;51.094;17.002;2024-02-26T08:31:26;14.80;99.90
324;DHT22;149;51.094;17.002;2024-02-26T08:33:54;15.00;99.90
324;DHT22;149;51.094;17.002;2024-02-26T08:36:22;14.50;99.90
324;DHT22;149;51.094;17.002;2024-02-26T08:38:49;14.30;99.90
324;DHT22;149;51.094;17.002;2024-02-26T08:41:16;14.00;99.90
324;DHT22;149;51.094;17.002;2024-02-26T08:43:43;13.80;99.90
324;DHT22;149;51.094;17.002;2024-02-26T08:46:10;13.30;99.90
324;DHT22;149;51.094;17.002;2024-02-26T08:48:39;12.90;99.90
324;DHT22;149;51.094;17.002;2024-02-26T08:51:07;12.80;99.90
324;DHT22;149;51.094;17.002;2024-02-26T08:53:38;12.50;99.90
324;DHT22;149;51.094;17.002;2024-02-26T08:56:10;12.50;99.90
324;DHT22;149;51.094;17.002;2024-02-26T08:58:44;12.70;99.90
324;DHT22;149;51.094;17.002;2024-02-26T09:01:13;12.20;99.90
324;DHT22;149;51.094;17.002;2024-02-26T09:03:40;12.50;99.90
324;DHT22;149;51.094;17.002;2024-02-26T09:06:07;12.90;99.90
324;DHT22;149;51.094;17.002;2024-02-26T09:08:34;12.40;99.90
324;DHT22;149;51.094;17.002;2024-02-26T09:11:04;12.50;99.90
324;DHT22;149;51.094;17.002;2024-02-26T09:13:31;12.50;99.90
324;DHT22;149;51.094;17.002;2024-02-26T09:15:59;12.30;99.90
324;DHT22;149;51.094;17.002;2024-02-26T09:18:26;12.40;99.90
324;DHT22;149;51.094;17.002;2024-02-26T09:20:55;12.80;99.90
324;DHT22;149;51.094;17.002;2024-02-26T09:23:23;12.90;99.90
324;DHT22;149;51.094;17.002;2024-02-26T09:25:50;12.60;99.90
324;DHT22;149;51.094;17.002;2024-02-26T09:28:17;12.30;99.90
324;DHT22;149;51.094;17.002;2024-02-26T09:30:44;12.60;99.90
324;DHT22;149;51.094;17.002;2024-02-26T09:33:13;12.20;99.90
324;DHT22;149;51.094;17.002;2024-02-26T09:35:40;12.00;99.90
324;DHT22;149;51.094;17.002;2024-02-26T09:38:08;12.10;99.90
324;DHT22;149;51.094;17.002;2024-02-26T09:40:35;12.20;99.90
324;DHT22;149;51.094;17.002;2024-02-26T09:43:05;12.20;99.90
324;DHT22;149;51.094;17.002;2024-02-26T09:45:33;11.80;99.90
324;DHT22;149;51.094;17.002;2024-02-26T09:48:00;11.70;99.90
324;DHT22;149;51.094;17.002;2024-02-26T09:50:29;11.80;99.90
324;DHT22;149;51.094;17.002;2024-02-26T09:52:56;12.20;99.90
324;DHT22;149;51.094;17.002;2024-02-26T09:55:26;12.00;99.90
324;DHT22;149;51.094;17.002;2024-02-26T09:57:54;12.30;99.90
324;DHT22;149;51.094;17.002;2024-02-26T10:00:22;12.50;99.90
324;DHT22;149;51.094;17.002;2024-02-26T10:02:50;12.70;99.90
324;DHT22;149;51.094;17.002;2024-02-26T10:05:19;12.50;99.90
324;DHT22;149;51.094;17.002;2024-02-26T10:07:46;12.70;99.90
324;DHT22;149;51.094;17.002;2024-02-26T10:10:14;12.70;99.90
324;DHT22;149;51.094;17.002;2024-02-26T10:12:41;12.30;99.90
324;DHT22;149;51.094;17.002;2024-02-26T10:15:09;12.10;99.90
324;DHT22;149;51.094;17.002;2024-02-26T10:17:37;12.10;99.90
324;DHT22;149;51.094;17.002;2024-02-26T10:20:18;12.40;99.90
324;DHT22;149;51.094;17.002;2024-02-26T10:22:49;12.80;99.90
324;DHT22;149;51.094;17.002;2024-02-26T10:25:16;13.10;99.90
324;DHT22;149;51.094;17.002;2024-02-26T10:27:43;12.70;99.90
324;DHT22;149;51.094;17.002;2024-02-26T10:30:21;12.40;99.90
324;DHT22;149;51.094;17.002;2024-02-26T10:32:49;12.40;99.90
324;DHT22;149;51.094;17.002;2024-02-26T10:35:17;12.30;99.90
324;DHT22;149;51.094;17.002;2024-02-26T10:37:45;12.40;99.90
324;DHT22;149;51.094;17.002;2024-02-26T10:40:16;12.40;99.90
324;DHT22;149;51.094;17.002;2024-02-26T10:42:44;12.60;99.90
324;DHT22;149;51.094;17.002;2024-02-26T10:45:12;12.90;99.90
324;DHT22;149;51.094;17.002;2024-02-26T10:47:40;12.60;99.90
324;DHT22;149;51.094;17.002;2024-02-26T10:50:09;12.70;99.90
324;DHT22;149;51.094;17.002;2024-02-26T10:52:37;12.90;99.90
324;DHT22;149;51.094;17.002;2024-02-26T10:55:05;12.60;99.90
324;DHT22;149;51.094;17.002;2024-02-26T10:57:39;12.70;99.90
324;DHT22;149;51.094;17.002;2024-02-26T11:00:07;12.80;99.90
324;DHT22;149;51.094;17.002;2024-02-26T11:02:38;12.60;99.90
324;DHT22;149;51.094;17.002;2024-02-26T11:05:07;12.30;99.90
324;DHT22;149;51.094;17.002;2024-02-26T11:07:35;12.60;99.90
324;DHT22;149;51.094;17.002;2024-02-26T11:10:05;12.50;99.90
324;DHT22;149;51.094;17.002;2024-02-26T11:12:34;12.50;99.90
324;DHT22;149;51.094;17.002;2024-02-26T11:15:05;12.50;99.90
324;DHT22;149;51.094;17.002;2024-02-26T11:17:33;12.60;99.90
324;DHT22;149;51.094;17.002;2024-02-26T11:20:01;12.70;99.90
324;DHT22;149;51.094;17.002;2024-02-26T11:22:32;13.00;99.90
324;DHT22;149;51.094;17.002;2024-02-26T11:25:00;12.90;99.90
324;DHT22;149;51.094;17.002;2024-02-26T11:27:30;12.70;99.90
324;DHT22;149;51.094;17.002;2024-02-26T11:30:01;12.80;99.90
324;DHT22;149;51.094;17.002;2024-02-26T11:32:31;12.80;99.90
324;DHT22;149;51.094;17.002;2024-02-26T11:34:59;12.90;99.90
324;DHT22;149;51.094;17.002;2024-02-26T11:37:27;13.10;99.90
324;DHT22;149;51.094;17.002;2024-02-26T11:39:54;13.00;99.90
324;DHT22;149;51.094;17.002;2024-02-26T11:42:24;13.00;99.90
324;DHT22;149;51.094;17.002;2024-02-26T11:44:52;13.30;99.90
324;DHT22;149;51.094;17.002;2024-02-26T11:47:21;13.30;99.90
324;DHT22;149;51.094;17.002;2024-02-26T11:49:49;13.00;99.90
324;DHT22;149;51.094;17.002;2024-02-26T11:52:16;13.00;99.90
324;DHT22;149;51.094;17.002;2024-02-26T11:54:51;13.10;99.90
324;DHT22;149;51.094;17.002;2024-02-26T11:57:27;13.20;99.90
324;DHT22;149;51.094;17.002;2024-02-26T12:00:14;13.20;99.90
324;DHT22;149;51.094;17.002;2024-02-26T12:02:52;13.40;99.90
324;DHT22;149;51.094;17.002;2024-02-26T12:05:32;13.60;99.90
324;DHT22;149;51.094;17.002;2024-02-26T12:08:04;13.40;99.90
324;DHT22;149;51.094;17.002;2024-02-26T12:10:39;13.40;99.90
324;DHT22;149;51.094;17.002;2024-02-26T12:13:10;13.40;99.90
324;DHT22;149;51.094;17.002;2024-02-26T12:15:56;13.30;99.90
324;DHT22;149;51.094;17.002;2024-02-26T12:18:24;13.30;99.90
324;DHT22;149;51.094;17.002;2024-02-26T12:21:03;13.40;99.90
324;DHT22;149;51.094;17.002;2024-02-26T12:23:31;13.70;99.90
324;DHT22;149;51.094;17.002;2024-02-26T12:25:59;13.50;99.90
324;DHT22;149;51.094;17.002;2024-02-26T12:28:29;13.60;99.90
324;DHT22;149;51.094;17.002;2024-02-26T12:30:57;13.60;99.90
324;DHT22;149;51.094;17.002;2024-02-26T12:33:27;13.50;99.90
324;DHT22;149;51.094;17.002;2024-02-26T12:35:56;13.20;99.90
324;DHT22;149;51.094;17.002;2024-02-26T12:38:23;13.50;99.90
324;DHT22;149;51.094;17.002;2024-02-26T12:40:51;13.50;99.90
324;DHT22;149;51.094;17.002;2024-02-26T12:43:18;13.70;99.90
324;DHT22;149;51.094;17.002;2024-02-26T12:45:45;13.50;99.90
324;DHT22;149;51.094;17.002;2024-02-26T12:48:14;13.50;99.90
324;DHT22;149;51.094;17.002;2024-02-26T12:50:46;13.50;99.90
324;DHT22;149;51.094;17.002;2024-02-26T12:53:14;13.50;99.90
324;DHT22;149;51.094;17.002;2024-02-26T12:55:42;13.20;99.90
324;DHT22;149;51.094;17.002;2024-02-26T12:58:10;13.40;99.90
324;DHT22;149;51.094;17.002;2024-02-26T13:00:38;13.50;99.90
324;DHT22;149;51.094;17.002;2024-02-26T13:03:05;13.50;99.90
324;DHT22;149;51.094;17.002;2024-02-26T13:05:33;13.60;99.90
324;DHT22;149;51.094;17.002;2024-02-26T13:08:00;13.50;99.90
324;DHT22;149;51.094;17.002;2024-02-26T13:10:32;13.40;99.90
324;DHT22;149;51.094;17.002;2024-02-26T13:13:02;13.60;99.90
324;DHT22;149;51.094;17.002;2024-02-26T13:15:29;13.60;99.90
324;DHT22;149;51.094;17.002;2024-02-26T13:17:57;13.80;99.90
324;DHT22;149;51.094;17.002;2024-02-26T13:20:31;13.60;99.90
324;DHT22;149;51.094;17.002;2024-02-26T13:23:06;13.70;99.90
324;DHT22;149;51.094;17.002;2024-02-26T13:25:35;13.70;99.90
324;DHT22;149;51.094;17.002;2024-02-26T13:28:16;13.40;99.90
324;DHT22;149;51.094;17.002;2024-02-26T13:30:57;13.50;99.90
324;DHT22;149;51.094;17.002;2024-02-26T13:33:25;13.40;99.90
324;DHT22;149;51.094;17.002;2024-02-26T13:35:54;13.40;99.90
324;DHT22;149;51.094;17.002;2024-02-26T13:38:22;13.50;99.90
324;DHT22;149;51.094;17.002;2024-02-26T13:40:50;13.80;99.90
324;DHT22;149;51.094;17.002;2024-02-26T13:43:18;13.70;99.90
324;DHT22;149;51.094;17.002;2024-02-26T13:45:46;13.50;99.90
324;DHT22;149;51.094;17.002;2024-02-26T13:48:14;13.40;99.90
324;DHT22;149;51.094;17.002;2024-02-26T13:50:42;13.50;99.90
324;DHT22;149;51.094;17.002;2024-02-26T13:53:11;13.50;99.90
324;DHT22;149;51.094;17.002;2024-02-26T13:55:40;13.40;99.90
324;DHT22;149;51.094;17.002;2024-02-26T13:58:12;13.40;99.90
324;DHT22;149;51.094;17.002;2024-02-26T14:00:40;13.40;99.90
324;DHT22;149;51.094;17.002;2024-02-26T14:03:09;13.40;99.90
324;DHT22;149;51.094;17.002;2024-02-26T14:05:36;13.40;99.90
324;DHT22;149;51.094;17.002;2024-02-26T14:08:04;13.30;99.90
324;DHT22;149;51.094;17.002;2024-02-26T14:10:32;13.30;99.90
324;DHT22;149;51.094;17.002;2024-02-26T14:12:59;13.30;99.90
324;DHT22;149;51.094;17.002;2024-02-26T14:15:28;13.40;99.90
324;DHT22;149;51.094;17.002;2024-02-26T14:17:56;13.30;99.90
324;DHT22;149;51.094;17.002;2024-02-26T14:20:24;13.20;99.90
324;DHT22;149;51.094;17.002;2024-02-26T14:22:52;13.10;99.90
324;DHT22;149;51.094;17.002;2024-02-26T14:25:23;13.20;99.90
324;DHT22;149;51.094;17.002;2024-02-26T14:27:55;13.00;99.90
324;DHT22;149;51.094;17.002;2024-02-26T14:30:24;13.00;99.90
324;DHT22;149;51.094;17.002;2024-02-26T14:32:51;13.10;99.90
324;DHT22;149;51.094;17.002;2024-02-26T14:35:18;13.10;99.90
324;DHT22;149;51.094;17.002;2024-02-26T14:37:46;13.10;99.90
324;DHT22;149;51.094;17.002;2024-02-26T14:40:15;13.10;99.90
324;DHT22;149;51.094;17.002;2024-02-26T14:42:42;13.00;99.90
324;DHT22;149;51.094;17.002;2024-02-26T14:45:10;13.00;99.90
324;DHT22;149;51.094;17.002;2024-02-26T14:47:38;13.00;99.90
324;DHT22;149;51.094;17.002;2024-02-26T14:50:06;12.80;99.90
324;DHT22;149;51.094;17.002;2024-02-26T14:52:33;12.90;99.90
324;DHT22;149;51.094;17.002;2024-02-26T14:55:00;12.90;99.90
324;DHT22;149;51.094;17.002;2024-02-26T14:57:27;12.90;99.90
324;DHT22;149;51.094;17.002;2024-02-26T14:59:54;12.80;99.90
324;DHT22;149;51.094;17.002;2024-02-26T15:02:22;12.90;99.90
324;DHT22;149;51.094;17.002;2024-02-26T15:04:49;12.90;99.90
324;DHT22;149;51.094;17.002;2024-02-26T15:07:16;12.90;99.90
324;DHT22;149;51.094;17.002;2024-02-26T15:09:43;12.80;99.90
324;DHT22;149;51.094;17.002;2024-02-26T15:12:10;12.80;99.90
324;DHT22;149;51.094;17.002;2024-02-26T15:14:38;12.80;99.90
324;DHT22;149;51.094;17.002;2024-02-26T15:17:05;12.80;99.90
324;DHT22;149;51.094;17.002;2024-02-26T15:19:37;12.80;99.90
324;DHT22;149;51.094;17.002;2024-02-26T15:22:05;12.80;99.90
324;DHT22;149;51.094;17.002;2024-02-26T15:24:32;12.80;99.90
324;DHT22;149;51.094;17.002;2024-02-26T15:26:59;12.80;99.90
324;DHT22;149;51.094;17.002;2024-02-26T15:29:26;12.80;99.90
324;DHT22;149;51.094;17.002;2024-02-26T15:31:53;12.70;99.90
324;DHT22;149;51.094;17.002;2024-02-26T15:34:20;12.70;99.90
324;DHT22;149;51.094;17.002;2024-02-26T15:36:47;12.70;99.90
324;DHT22;149;51.094;17.002;2024-02-26T15:39:14;12.70;99.90
324;DHT22;149;51.094;17.002;2024-02-26T15:41:41;12.60;99.90
324;DHT22;149;51.094;17.002;2024-02-26T15:44:08;12.60;99.90
324;DHT22;149;51.094;17.002;2024-02-26T15:46:39;12.60;99.90
324;DHT22;149;51.094;17.002;2024-02-26T15:49:07;12.50;99.90
324;DHT22;149;51.094;17.002;2024-02-26T15:51:38;12.50;99.90
324;DHT22;149;51.094;17.002;2024-02-26T15:54:05;12.40;99.90
324;DHT22;149;51.094;17.002;2024-02-26T15:56:32;12.40;99.90
324;DHT22;149;51.094;17.002;2024-02-26T15:58:59;12.40;99.90
324;DHT22;149;51.094;17.002;2024-02-26T16:01:26;12.40;99.90
324;DHT22;149;51.094;17.002;2024-02-26T16:03:58;12.40;99.90
324;DHT22;149;51.094;17.002;2024-02-26T16:06:32;12.40;99.90
324;DHT22;149;51.094;17.002;2024-02-26T16:09:00;12.30;99.90
324;DHT22;149;51.094;17.002;2024-02-26T16:11:27;12.10;99.90
324;DHT22;149;51.094;17.002;2024-02-26T16:16:59;12.20;99.90
324;DHT22;149;51.094;17.002;2024-02-26T16:19:27;12.20;99.90
324;DHT22;149;51.094;17.002;2024-02-26T16:21:54;12.00;99.90
324;DHT22;149;51.094;17.002;2024-02-26T16:24:22;12.00;99.90
324;DHT22;149;51.094;17.002;2024-02-26T16:26:49;12.00;99.90
324;DHT22;149;51.094;17.002;2024-02-26T16:29:16;11.90;99.90
324;DHT22;149;51.094;17.002;2024-02-26T16:31:43;11.90;99.90
324;DHT22;149;51.094;17.002;2024-02-26T16:34:09;12.00;99.90